Glendora, New Jersey
Current Conditions -  °F | °C
As of 2:54 PM on Tuesday 25 Nov 2014 (Local Time) from KPHL Reporting Station
Overcast Overcast  
Wind Chill: 55°   Ceiling: 20000
Heat Index: 55°   Visibility: 10mi
Dew Point: 28°   Wind: 10mph
Humidity: 35%   Direction: 280°W
Pressure: 30.03"   Gusts: NA
Location:  39.84°N, 75.07°W
Report Text: KPHL 251954Z 28009KT 10SM FEW048 SCT075 OVC200 13/M02 A3003 RMK AO2 SLP169 T01281022 $
Loading
Personal Weather Stations






























Interactive Weather Map New forecast layout! Learn more

10-Day Weather Forecast

Advertisements
Track Severe Weather on mobile